createdAt,value
2018-12-26T00:00:08.039Z,-1.71
2018-12-26T00:02:37.635Z,-1.79
2018-12-26T00:05:06.862Z,-1.86
2018-12-26T00:07:36.900Z,-1.91
2018-12-26T00:10:06.480Z,-1.90
2018-12-26T00:12:36.312Z,-1.90
2018-12-26T00:15:05.905Z,-1.99
2018-12-26T00:17:35.402Z,-2.02
2018-12-26T00:20:05.146Z,-2.06
2018-12-26T00:22:35.826Z,-2.01
2018-12-26T00:25:05.626Z,-2.06
2018-12-26T00:27:35.255Z,-2.08
2018-12-26T00:30:04.852Z,-1.99
2018-12-26T00:32:34.331Z,-1.85
2018-12-26T00:35:03.809Z,-1.76
2018-12-26T00:37:33.339Z,-1.87
2018-12-26T00:40:02.845Z,-1.95
2018-12-26T00:42:32.337Z,-1.93
2018-12-26T00:45:01.793Z,-1.94
2018-12-26T00:47:31.549Z,-1.99
2018-12-26T00:50:00.771Z,-1.99
2018-12-26T00:52:29.993Z,-2.02
2018-12-26T00:54:59.471Z,-1.99
2018-12-26T00:57:28.715Z,-2.07
2018-12-26T00:59:58.184Z,-2.12
2018-12-26T01:02:27.741Z,-2.12
2018-12-26T01:04:57.497Z,-2.13
2018-12-26T01:07:27.652Z,-2.19
2018-12-26T01:09:57.119Z,-2.14
2018-12-26T01:12:26.311Z,-2.17
2018-12-26T01:14:55.789Z,-2.23
2018-12-26T01:17:25.247Z,-2.30
2018-12-26T01:19:55.091Z,-2.28
2018-12-26T01:22:25.451Z,-2.35
2018-12-26T01:24:54.958Z,-2.36
2018-12-26T01:27:24.152Z,-2.35
2018-12-26T01:29:53.651Z,-2.39
2018-12-26T01:32:23.104Z,-2.34
2018-12-26T01:34:52.588Z,-2.28
2018-12-26T01:37:22.056Z,-2.32
2018-12-26T01:39:51.925Z,-2.39
2018-12-26T01:42:21.115Z,-2.36
2018-12-26T01:44:50.697Z,-2.38
2018-12-26T01:47:20.157Z,-2.40
2018-12-26T01:49:49.633Z,-2.33
2018-12-26T01:52:19.102Z,-2.26
2018-12-26T01:54:48.702Z,-2.09
2018-12-26T01:57:18.270Z,-2.09
2018-12-26T01:59:47.758Z,-2.04
2018-12-26T02:02:17.344Z,-2.04
2018-12-26T02:04:46.575Z,-1.98
2018-12-26T02:07:16.359Z,-1.95
2018-12-26T02:09:46.121Z,-2.04
2018-12-26T02:12:16.413Z,-2.08
2018-12-26T02:14:45.886Z,-2.14
2018-12-26T02:17:15.363Z,-2.20
2018-12-26T02:19:44.941Z,-2.22
2018-12-26T02:22:14.169Z,-2.26
2018-12-26T02:24:43.683Z,-2.23
2018-12-26T02:27:13.535Z,-2.27
2018-12-26T02:29:43.012Z,-2.20
2018-12-26T02:32:12.595Z,-2.17
2018-12-26T02:34:42.340Z,-2.14
2018-12-26T02:37:12.409Z,-2.03
2018-12-26T02:39:41.609Z,-2.10
2018-12-26T02:44:46.095Z,-2.14
2018-12-26T02:47:15.880Z,-2.13
2018-12-26T02:49:45.693Z,-2.17
2018-12-26T02:52:14.898Z,-2.17
2018-12-26T02:54:44.091Z,-2.23
2018-12-26T02:57:13.830Z,-2.27
2018-12-26T02:59:43.413Z,-2.32
2018-12-26T03:02:12.920Z,-2.36
2018-12-26T03:04:43.099Z,-2.38
2018-12-26T03:07:12.728Z,-2.35
2018-12-26T03:09:42.231Z,-2.41
2018-12-26T03:12:11.718Z,-2.40
2018-12-26T03:14:41.156Z,-2.35
2018-12-26T03:17:10.656Z,-2.42
2018-12-26T03:19:40.434Z,-2.44
2018-12-26T03:22:09.642Z,-2.50
2018-12-26T03:24:39.373Z,-2.52
2018-12-26T03:27:08.620Z,-2.53
2018-12-26T03:29:38.090Z,-2.54
2018-12-26T03:32:07.333Z,-2.53
2018-12-26T03:34:36.511Z,-2.51
2018-12-26T03:37:06.552Z,-2.54
2018-12-26T03:39:36.004Z,-2.51
2018-12-26T03:42:05.337Z,-2.46
2018-12-26T03:45:13.915Z,-2.47
2018-12-26T03:48:22.521Z,-2.43
2018-12-26T03:50:52.297Z,-2.42
2018-12-26T03:53:21.885Z,-2.46
2018-12-26T03:55:51.433Z,-2.42
2018-12-26T03:58:20.926Z,-2.37
2018-12-26T04:00:50.136Z,-2.43
2018-12-26T04:03:19.952Z,-2.44
2018-12-26T04:05:49.147Z,-2.48
2018-12-26T04:08:19.638Z,-2.48
2018-12-26T04:13:57.785Z,-2.48
2018-12-26T04:16:26.981Z,-2.44
2018-12-26T04:18:56.477Z,-2.48
2018-12-26T04:21:26.147Z,-2.43
2018-12-26T04:23:55.723Z,-2.18
2018-12-26T04:26:25.476Z,-2.28
2018-12-26T04:28:54.969Z,-2.34
2018-12-26T04:31:24.151Z,-2.35
2018-12-26T04:33:53.377Z,-2.40
2018-12-26T04:36:23.011Z,-2.48
2018-12-26T04:38:52.793Z,-2.50
2018-12-26T04:41:22.658Z,-2.54
2018-12-26T04:43:52.114Z,-2.56
2018-12-26T04:46:21.886Z,-2.58
2018-12-26T04:48:51.359Z,-2.58
2018-12-26T04:51:20.816Z,-2.58
2018-12-26T04:53:50.284Z,-2.61
2018-12-26T04:56:19.771Z,-2.57
2018-12-26T04:58:49.273Z,-2.51
2018-12-26T05:01:19.009Z,-2.46
2018-12-26T05:03:48.792Z,-2.52
2018-12-26T05:06:18.269Z,-2.51
2018-12-26T05:08:48.059Z,-2.49
2018-12-26T05:11:17.642Z,-2.45
2018-12-26T05:13:47.125Z,-2.43
2018-12-26T05:16:16.612Z,-2.46
2018-12-26T05:18:45.826Z,-2.56
2018-12-26T05:21:15.022Z,-2.58
2018-12-26T05:23:44.238Z,-2.50
2018-12-26T05:26:13.444Z,-2.52
2018-12-26T05:28:42.673Z,-2.50
2018-12-26T05:31:11.850Z,-2.50
2018-12-26T05:33:41.073Z,-2.56
2018-12-26T05:36:10.265Z,-2.59
2018-12-26T05:38:39.473Z,-2.60
2018-12-26T05:41:08.661Z,-2.62
2018-12-26T05:43:37.885Z,-2.58
2018-12-26T05:46:07.376Z,-2.58
2018-12-26T05:48:36.586Z,-2.58
2018-12-26T05:51:06.101Z,-2.57
2018-12-26T05:53:35.318Z,-2.55
2018-12-26T05:56:04.509Z,-2.55
2018-12-26T05:58:33.714Z,-2.59
2018-12-26T06:01:02.912Z,-2.58
2018-12-26T06:03:32.117Z,-2.61
2018-12-26T06:06:01.323Z,-2.48
2018-12-26T06:08:30.733Z,-2.52
2018-12-26T06:10:59.919Z,-2.49
2018-12-26T06:13:29.183Z,-2.53
2018-12-26T06:15:58.407Z,-2.51
2018-12-26T06:18:27.625Z,-2.49
2018-12-26T06:20:56.845Z,-2.52
2018-12-26T06:23:26.068Z,-2.55
2018-12-26T06:25:55.293Z,-2.57
2018-12-26T06:28:24.509Z,-2.58
2018-12-26T06:30:53.711Z,-2.60
2018-12-26T06:33:23.224Z,-2.64
2018-12-26T06:35:52.435Z,-2.59
2018-12-26T06:38:21.642Z,-2.57
2018-12-26T06:40:50.835Z,-2.58
2018-12-26T06:43:20.313Z,-2.52
2018-12-26T06:45:49.498Z,-2.53
2018-12-26T06:48:18.710Z,-2.56
2018-12-26T06:50:47.916Z,-2.54
2018-12-26T06:53:17.154Z,-2.51
2018-12-26T06:55:46.365Z,-2.49
2018-12-26T06:58:15.583Z,-2.55
2018-12-26T07:00:44.767Z,-2.57
2018-12-26T07:03:13.977Z,-2.56
2018-12-26T07:05:43.164Z,-2.53
2018-12-26T07:08:12.387Z,-2.57
2018-12-26T07:10:41.568Z,-2.60
2018-12-26T07:13:10.805Z,-2.60
2018-12-26T07:15:39.985Z,-2.59
2018-12-26T07:18:09.207Z,-2.52
2018-12-26T07:20:38.423Z,-2.51
2018-12-26T07:23:07.641Z,-2.49
2018-12-26T07:25:36.890Z,-2.45
2018-12-26T07:28:09.299Z,-2.44
2018-12-26T07:30:56.092Z,-2.41
2018-12-26T07:33:25.306Z,-2.45
2018-12-26T07:36:13.493Z,-2.48
2018-12-26T07:38:42.711Z,-2.51
2018-12-26T07:41:11.902Z,-2.47
2018-12-26T07:43:41.104Z,-2.44
2018-12-26T07:46:10.299Z,-2.42
2018-12-26T07:48:39.521Z,-2.41
2018-12-26T07:51:08.718Z,-2.38
2018-12-26T07:53:37.978Z,-2.36
2018-12-26T07:56:07.191Z,-2.32
2018-12-26T08:01:33.157Z,-2.30
2018-12-26T08:04:02.374Z,-2.26
2018-12-26T08:06:31.563Z,-2.18
2018-12-26T08:09:00.768Z,-2.15
2018-12-26T08:11:30.233Z,-2.05
2018-12-26T08:13:59.448Z,-2.05
2018-12-26T08:16:28.649Z,-2.03
2018-12-26T08:18:57.850Z,-1.96
2018-12-26T08:21:27.064Z,-1.81
2018-12-26T08:23:56.539Z,-1.76
2018-12-26T08:26:25.750Z,-1.72
2018-12-26T08:28:54.957Z,-1.70
2018-12-26T08:34:12.909Z,-1.58
2018-12-26T08:36:42.095Z,-1.40
2018-12-26T08:39:11.588Z,-1.42
2018-12-26T08:41:40.803Z,-1.41
2018-12-26T08:44:10.013Z,-1.31
2018-12-26T08:46:39.500Z,-1.34
2018-12-26T08:49:08.735Z,-1.21
2018-12-26T08:51:37.926Z,-1.13
2018-12-26T08:54:07.151Z,-1.12
2018-12-26T08:56:36.348Z,-1.11
2018-12-26T08:59:05.558Z,-1.01
2018-12-26T09:01:35.009Z,-0.93
2018-12-26T09:04:04.251Z,-0.88
2018-12-26T09:06:33.437Z,-0.81
2018-12-26T09:14:12.268Z,-0.67
2018-12-26T09:16:41.479Z,-0.59
2018-12-26T09:19:10.698Z,-0.61
2018-12-26T09:21:39.906Z,-0.56
2018-12-26T09:24:09.121Z,-0.50
2018-12-26T09:26:39.843Z,-0.45
2018-12-26T09:29:09.070Z,-0.44
2018-12-26T09:31:38.266Z,-0.49
2018-12-26T09:34:07.987Z,-0.49
2018-12-26T09:36:37.486Z,-0.49
2018-12-26T09:39:08.054Z,-0.42
2018-12-26T09:41:37.271Z,-0.36
2018-12-26T09:44:06.453Z,-0.32
2018-12-26T09:46:36.086Z,-0.33
2018-12-26T09:49:05.285Z,-0.28
2018-12-26T09:51:34.511Z,-0.29
2018-12-26T09:54:03.698Z,-0.27
2018-12-26T09:56:32.916Z,-0.23
2018-12-26T09:59:02.112Z,-0.14
2018-12-26T10:01:31.354Z,-0.13
2018-12-26T10:04:00.547Z,-0.10
2018-12-26T10:06:29.762Z,0.03
2018-12-26T10:08:59.217Z,0.14
2018-12-26T10:11:28.699Z,0.23
2018-12-26T10:13:57.893Z,0.26
2018-12-26T10:16:27.150Z,0.36
2018-12-26T10:18:56.343Z,0.44
2018-12-26T10:21:25.563Z,0.51
2018-12-26T10:24:13.778Z,0.56
2018-12-26T10:26:43.288Z,0.64
2018-12-26T10:29:12.746Z,0.67
2018-12-26T10:31:42.228Z,0.69
2018-12-26T10:34:11.427Z,0.73
2018-12-26T10:36:40.642Z,0.78
2018-12-26T10:39:09.837Z,0.85
2018-12-26T10:41:39.078Z,0.90
2018-12-26T10:44:08.259Z,0.91
2018-12-26T10:46:37.463Z,1.01
2018-12-26T10:49:06.653Z,1.02
2018-12-26T10:51:35.860Z,1.05
2018-12-26T10:54:05.045Z,1.12
2018-12-26T10:56:34.245Z,1.15
2018-12-26T10:59:09.967Z,1.13
2018-12-26T11:01:34.964Z,1.18
2018-12-26T11:04:04.161Z,1.26
2018-12-26T11:06:33.487Z,1.34
2018-12-26T11:09:02.933Z,1.42
2018-12-26T11:11:32.413Z,1.52
2018-12-26T11:14:01.623Z,1.59
2018-12-26T11:16:30.964Z,1.53
2018-12-26T11:19:00.590Z,1.72
2018-12-26T11:21:30.046Z,1.80
2018-12-26T11:23:59.252Z,1.85
2018-12-26T11:26:28.585Z,1.95
2018-12-26T11:28:58.025Z,2.03
2018-12-26T11:31:27.211Z,2.07
2018-12-26T11:33:56.806Z,2.13
2018-12-26T11:36:26.000Z,2.20
2018-12-26T11:38:55.322Z,2.30
2018-12-26T11:41:24.525Z,2.39
2018-12-26T11:43:53.949Z,2.48
2018-12-26T11:46:23.155Z,2.56
2018-12-26T11:48:52.670Z,2.64
2018-12-26T11:51:22.227Z,2.66
2018-12-26T11:53:51.693Z,2.78
2018-12-26T11:56:20.884Z,2.84
2018-12-26T11:58:50.103Z,2.93
2018-12-26T12:01:19.285Z,2.91
2018-12-26T12:03:48.503Z,3.03
2018-12-26T12:06:17.699Z,3.16
2018-12-26T12:08:47.208Z,3.25
2018-12-26T12:11:16.402Z,3.34
2018-12-26T12:13:45.884Z,3.35
2018-12-26T12:16:15.074Z,3.47
2018-12-26T12:18:44.368Z,3.61
2018-12-26T12:21:13.804Z,3.64
2018-12-26T12:23:43.295Z,3.63
2018-12-26T12:26:12.526Z,3.63
2018-12-26T12:28:41.725Z,3.72
2018-12-26T12:31:11.453Z,3.66
2018-12-26T12:33:41.004Z,3.64
2018-12-26T12:36:12.973Z,3.80
2018-12-26T12:38:42.112Z,3.86
2018-12-26T12:41:11.314Z,3.88
2018-12-26T12:43:40.500Z,3.94
2018-12-26T12:46:09.804Z,3.99
2018-12-26T12:48:38.985Z,4.07
2018-12-26T12:51:08.186Z,4.18
2018-12-26T12:53:37.382Z,4.28
2018-12-26T12:56:11.754Z,4.38
2018-12-26T12:58:37.700Z,4.47
2018-12-26T13:01:07.167Z,4.52
2018-12-26T13:03:36.621Z,4.59
2018-12-26T13:06:05.806Z,4.62
2018-12-26T13:08:34.990Z,4.61
2018-12-26T13:11:04.576Z,4.65
2018-12-26T13:13:33.867Z,4.70
2018-12-26T13:16:03.094Z,4.79
2018-12-26T13:18:32.287Z,4.88
2018-12-26T13:21:01.488Z,4.96
2018-12-26T13:23:30.925Z,4.95
2018-12-26T13:26:00.419Z,5.04
2018-12-26T13:28:29.606Z,5.10
2018-12-26T13:31:04.983Z,5.15
2018-12-26T13:36:21.022Z,5.18
2018-12-26T13:38:50.200Z,5.24
2018-12-26T13:41:19.411Z,5.23
2018-12-26T13:43:48.596Z,5.33
2018-12-26T13:46:17.803Z,5.33
2018-12-26T13:48:46.984Z,5.37
2018-12-26T13:51:16.475Z,5.49
2018-12-26T13:53:45.652Z,5.76
2018-12-26T13:56:14.866Z,6.02
2018-12-26T13:58:44.050Z,6.01
2018-12-26T14:01:13.249Z,5.85
2018-12-26T14:03:42.698Z,5.66
2018-12-26T14:06:11.906Z,5.57
2018-12-26T14:08:41.094Z,5.59
2018-12-26T14:11:10.334Z,5.52
2018-12-26T14:13:39.509Z,5.50
2018-12-26T14:16:08.736Z,5.44
2018-12-26T14:18:38.243Z,5.37
2018-12-26T14:21:07.469Z,5.35
2018-12-26T14:23:36.936Z,5.22
2018-12-26T14:26:06.419Z,5.12
2018-12-26T14:28:35.627Z,5.03
2018-12-26T14:31:04.838Z,4.92
2018-12-26T14:33:34.069Z,4.84
2018-12-26T14:36:03.518Z,4.75
2018-12-26T14:38:32.758Z,4.57
2018-12-26T14:41:02.245Z,4.43
2018-12-26T14:43:31.494Z,4.32
2018-12-26T14:46:00.698Z,4.21
2018-12-26T14:48:29.924Z,4.13
2018-12-26T14:50:59.118Z,4.04
2018-12-26T14:53:28.339Z,3.97
2018-12-26T14:55:57.518Z,3.84
2018-12-26T14:58:26.842Z,3.74
2018-12-26T15:00:56.286Z,3.63
2018-12-26T15:03:25.529Z,3.54
2018-12-26T15:05:54.993Z,3.43
2018-12-26T15:08:24.184Z,3.32
2018-12-26T15:10:53.636Z,3.24
2018-12-26T15:13:22.829Z,3.13
2018-12-26T15:15:52.022Z,3.04
2018-12-26T15:18:21.271Z,2.92
2018-12-26T15:20:50.491Z,2.79
2018-12-26T15:23:19.813Z,2.70
2018-12-26T15:25:49.031Z,2.60
2018-12-26T15:28:18.227Z,2.53
2018-12-26T15:30:47.402Z,2.39
2018-12-26T15:33:16.607Z,2.25
2018-12-26T15:35:45.791Z,2.10
2018-12-26T15:38:15.261Z,1.98
2018-12-26T15:40:44.455Z,1.87
2018-12-26T15:43:13.681Z,1.79
2018-12-26T15:45:42.879Z,1.70
2018-12-26T15:48:12.110Z,1.59
2018-12-26T15:50:41.558Z,1.50
2018-12-26T15:53:10.776Z,1.44
2018-12-26T15:55:39.985Z,1.33
2018-12-26T15:58:09.224Z,1.26
2018-12-26T16:00:38.420Z,1.17
2018-12-26T16:03:07.621Z,1.14
2018-12-26T16:05:37.146Z,1.10
2018-12-26T16:08:06.360Z,1.09
2018-12-26T16:10:35.570Z,1.09
2018-12-26T16:13:05.384Z,1.12
2018-12-26T16:15:34.599Z,1.08
2018-12-26T16:18:03.789Z,1.13
2018-12-26T16:20:33.341Z,1.14
2018-12-26T16:23:02.562Z,1.11
2018-12-26T16:25:31.764Z,1.14
2018-12-26T16:28:01.022Z,1.08
2018-12-26T16:30:30.219Z,1.01
2018-12-26T16:32:59.413Z,0.94
2018-12-26T16:35:29.172Z,0.85
2018-12-26T16:38:01.599Z,0.82
2018-12-26T16:40:29.383Z,0.73
2018-12-26T16:42:58.574Z,0.67
2018-12-26T16:45:27.780Z,0.64
2018-12-26T16:47:56.973Z,0.63
2018-12-26T16:50:45.259Z,0.64
2018-12-26T16:53:14.451Z,0.56
2018-12-26T16:56:02.595Z,0.56
2018-12-26T16:58:31.801Z,0.53
2018-12-26T17:01:01.309Z,0.52
2018-12-26T17:03:32.782Z,0.47
2018-12-26T17:06:02.011Z,0.44
2018-12-26T17:08:31.202Z,0.50
2018-12-26T17:11:00.410Z,0.53
2018-12-26T17:13:29.624Z,0.55
2018-12-26T17:15:58.871Z,0.56
2018-12-26T17:18:28.079Z,0.58
2018-12-26T17:20:57.296Z,0.56
2018-12-26T17:23:26.525Z,0.58
2018-12-26T17:25:55.737Z,0.65
2018-12-26T17:28:24.961Z,0.70
2018-12-26T17:30:54.228Z,0.72
2018-12-26T17:33:23.688Z,0.71
2018-12-26T17:35:53.184Z,0.66
2018-12-26T17:38:22.372Z,0.63
2018-12-26T17:40:58.813Z,0.55
2018-12-26T17:43:27.994Z,0.50
2018-12-26T17:45:57.209Z,0.47
2018-12-26T17:48:26.402Z,0.42
2018-12-26T17:50:55.719Z,0.41
2018-12-26T17:54:02.951Z,0.36
2018-12-26T17:57:10.211Z,0.32
2018-12-26T18:00:04.560Z,0.32
2018-12-26T18:02:40.696Z,0.32
2018-12-26T18:05:09.884Z,0.32
2018-12-26T18:07:39.106Z,0.30
2018-12-26T18:10:09.724Z,0.29
2018-12-26T18:12:38.956Z,0.28
2018-12-26T18:15:10.718Z,0.27
2018-12-26T18:17:40.054Z,0.25
2018-12-26T18:20:10.753Z,0.20
2018-12-26T18:22:40.002Z,0.17
2018-12-26T18:25:09.307Z,0.16
2018-12-26T18:27:38.812Z,0.15
2018-12-26T18:30:11.698Z,0.18
2018-12-26T18:32:41.042Z,0.26
2018-12-26T18:35:11.189Z,0.30
2018-12-26T18:37:40.674Z,0.22
2018-12-26T18:40:09.917Z,0.12
2018-12-26T18:42:39.428Z,0.06
2018-12-26T18:45:09.449Z,0.00
2018-12-26T18:47:39.205Z,-0.02
2018-12-26T18:50:10.710Z,-0.03
2018-12-26T18:52:40.174Z,0.00
2018-12-26T18:55:09.798Z,-0.02
2018-12-26T18:57:38.992Z,-0.05
2018-12-26T19:00:11.434Z,-0.07
2018-12-26T19:02:40.943Z,-0.06
2018-12-26T19:05:11.454Z,-0.03
2018-12-26T19:07:41.221Z,-0.13
2018-12-26T19:10:11.407Z,-0.18
2018-12-26T19:12:40.977Z,-0.23
2018-12-26T19:15:10.464Z,-0.26
2018-12-26T19:17:39.666Z,-0.26
2018-12-26T19:20:10.592Z,-0.25
2018-12-26T19:22:39.791Z,-0.26
2018-12-26T19:25:09.020Z,-0.27
2018-12-26T19:27:38.509Z,-0.29
2018-12-26T19:30:11.125Z,-0.31
2018-12-26T19:32:40.596Z,-0.34
2018-12-26T19:35:28.892Z,-0.39
2018-12-26T19:37:58.346Z,-0.39
2018-12-26T19:40:27.566Z,-0.35
2018-12-26T19:42:57.039Z,-0.41
2018-12-26T19:45:26.547Z,-0.41
2018-12-26T19:47:56.081Z,-0.45
2018-12-26T19:50:25.616Z,-0.44
2018-12-26T19:52:55.109Z,-0.35
2018-12-26T19:55:24.866Z,-0.38
2018-12-26T19:57:54.099Z,-0.40
2018-12-26T20:00:42.675Z,-0.40
2018-12-26T20:03:11.864Z,-0.36
2018-12-26T20:08:15.575Z,-0.35
2018-12-26T20:10:44.821Z,-0.30
2018-12-26T20:13:14.053Z,-0.29
2018-12-26T20:15:43.575Z,-0.27
2018-12-26T20:18:12.777Z,-0.34
2018-12-26T20:20:42.057Z,-0.39
2018-12-26T20:23:11.651Z,-0.39
2018-12-26T20:25:41.211Z,-0.32
2018-12-26T20:28:10.452Z,-0.29
2018-12-26T20:30:39.763Z,-0.26
2018-12-26T20:33:09.088Z,-0.22
2018-12-26T20:35:38.391Z,-0.23
2018-12-26T20:38:07.613Z,-0.23
2018-12-26T20:40:36.884Z,-0.24
2018-12-26T20:43:06.096Z,-0.23
2018-12-26T20:45:35.357Z,-0.22
2018-12-26T20:48:04.931Z,-0.25
2018-12-26T20:50:34.209Z,-0.23
2018-12-26T20:53:03.395Z,-0.24
2018-12-26T20:55:32.683Z,-0.22
2018-12-26T20:58:01.967Z,-0.19
2018-12-26T21:00:31.365Z,-0.18
2018-12-26T21:03:00.941Z,-0.19
2018-12-26T21:05:31.606Z,-0.19
2018-12-26T21:08:01.208Z,-0.17
2018-12-26T21:10:30.490Z,-0.15
2018-12-26T21:12:59.758Z,-0.05
2018-12-26T21:15:29.235Z,-0.03
2018-12-26T21:18:18.283Z,-0.02
2018-12-26T21:20:49.485Z,0.00
2018-12-26T21:23:18.511Z,0.03
2018-12-26T21:25:48.423Z,0.01
2018-12-26T21:28:17.663Z,-0.03
2018-12-26T21:30:47.430Z,-0.01
2018-12-26T21:33:17.052Z,-0.02
2018-12-26T21:36:05.317Z,-0.04
2018-12-26T21:38:34.549Z,0.00
2018-12-26T21:41:03.737Z,0.04
2018-12-26T21:43:33.270Z,0.06
2018-12-26T21:46:02.599Z,0.08
2018-12-26T21:48:32.335Z,0.07
2018-12-26T21:51:01.529Z,0.06
2018-12-26T21:53:31.015Z,0.06
2018-12-26T21:56:00.210Z,0.07
2018-12-26T21:58:29.459Z,0.08
2018-12-26T22:00:59.373Z,0.05
2018-12-26T22:03:28.531Z,0.06
2018-12-26T22:05:58.610Z,0.09
2018-12-26T22:08:27.846Z,0.11
2018-12-26T22:10:57.055Z,0.14
2018-12-26T22:13:26.280Z,0.13
2018-12-26T22:15:55.469Z,0.13
2018-12-26T22:18:24.695Z,0.14
2018-12-26T22:20:53.925Z,0.18
2018-12-26T22:23:42.342Z,0.20
2018-12-26T22:26:11.525Z,0.23
2018-12-26T22:28:40.773Z,0.30
2018-12-26T22:31:09.970Z,0.38
2018-12-26T22:33:39.584Z,0.38
2018-12-26T22:36:08.739Z,0.37
2018-12-26T22:38:56.950Z,0.39
2018-12-26T22:41:26.143Z,0.42
2018-12-26T22:46:30.263Z,0.41
2018-12-26T22:48:59.496Z,0.42
2018-12-26T22:51:28.751Z,0.43
2018-12-26T22:53:57.970Z,0.43
2018-12-26T22:56:27.165Z,0.43
2018-12-26T22:58:56.755Z,0.45
2018-12-26T23:01:26.018Z,0.46
2018-12-26T23:03:55.276Z,0.46
2018-12-26T23:06:24.466Z,0.48
2018-12-26T23:08:53.689Z,0.48
2018-12-26T23:11:22.886Z,0.46
2018-12-26T23:13:52.375Z,0.45
2018-12-26T23:16:21.711Z,0.43
2018-12-26T23:18:50.926Z,0.42
2018-12-26T23:21:20.116Z,0.44
2018-12-26T23:23:49.697Z,0.47
2018-12-26T23:26:19.219Z,0.49
2018-12-26T23:28:48.538Z,0.54
2018-12-26T23:31:17.667Z,0.56
2018-12-26T23:33:46.885Z,0.56
2018-12-26T23:36:16.366Z,0.54
2018-12-26T23:38:45.918Z,0.56
2018-12-26T23:41:15.130Z,0.58
2018-12-26T23:43:44.388Z,0.59
2018-12-26T23:46:13.586Z,0.56
2018-12-26T23:48:43.115Z,0.62
2018-12-26T23:51:12.310Z,0.60
2018-12-26T23:53:41.511Z,0.62
2018-12-26T23:56:10.729Z,0.63
2018-12-26T23:58:39.921Z,0.64
